createdAt,value
2017-07-21T00:00:25.851Z,982.69
2017-07-21T00:01:36.126Z,982.66
2017-07-21T00:02:46.392Z,982.64
2017-07-21T00:03:56.672Z,982.69
2017-07-21T00:05:06.635Z,982.7
2017-07-21T00:06:16.909Z,982.7
2017-07-21T00:07:27.184Z,982.69
2017-07-21T00:08:37.456Z,982.7
2017-07-21T00:09:47.728Z,982.7
2017-07-21T00:10:58.001Z,982.72
2017-07-21T00:12:08.273Z,982.71
2017-07-21T00:13:18.548Z,982.64
2017-07-21T00:14:28.851Z,982.64
2017-07-21T00:15:38.803Z,982.67
2017-07-21T00:16:48.764Z,982.62
2017-07-21T00:17:58.717Z,982.67
2017-07-21T00:19:08.987Z,982.68
2017-07-21T00:20:19.267Z,982.67
2017-07-21T00:21:29.538Z,982.67
2017-07-21T00:22:39.810Z,982.66
2017-07-21T00:23:50.083Z,982.68
2017-07-21T00:25:00.353Z,982.65
2017-07-21T00:26:10.005Z,982.65
2017-07-21T00:27:20.280Z,982.75
2017-07-21T00:28:30.234Z,982.68
2017-07-21T00:29:40.503Z,982.71
2017-07-21T00:30:50.776Z,982.69
2017-07-21T00:32:01.051Z,982.72
2017-07-21T00:33:11.005Z,982.69
2017-07-21T00:34:21.290Z,982.71
2017-07-21T00:35:31.248Z,982.74
2017-07-21T00:36:41.203Z,982.72
2017-07-21T00:37:51.482Z,982.78
2017-07-21T00:39:01.777Z,982.77
2017-07-21T00:40:12.050Z,982.72
2017-07-21T00:41:22.011Z,982.76
2017-07-21T00:42:31.652Z,982.74
2017-07-21T00:43:41.932Z,982.78
2017-07-21T00:44:52.206Z,982.81
2017-07-21T00:46:02.163Z,982.87
2017-07-21T00:47:12.433Z,982.84
2017-07-21T00:48:22.389Z,982.89
2017-07-21T00:49:32.656Z,982.91
2017-07-21T00:50:42.925Z,982.87
2017-07-21T00:51:53.193Z,982.87
2017-07-21T00:53:03.149Z,982.91
2017-07-21T00:54:13.416Z,982.91
2017-07-21T00:55:23.686Z,982.9
2017-07-21T00:56:33.962Z,982.9
2017-07-21T00:57:43.918Z,982.91
2017-07-21T00:58:53.872Z,982.87
2017-07-21T01:00:03.826Z,982.86
2017-07-21T01:01:14.100Z,982.88
2017-07-21T01:02:24.370Z,982.88
2017-07-21T01:03:34.324Z,982.84
2017-07-21T01:04:44.291Z,982.9
2017-07-21T01:05:54.566Z,982.92
2017-07-21T01:07:04.834Z,982.91
2017-07-21T01:08:15.107Z,982.91
2017-07-21T01:09:25.069Z,982.91
2017-07-21T01:10:35.341Z,982.9
2017-07-21T01:11:45.297Z,982.94
2017-07-21T01:12:55.572Z,982.93
2017-07-21T01:14:05.845Z,982.95
2017-07-21T01:15:16.119Z,982.94
2017-07-21T01:16:26.083Z,982.96
2017-07-21T01:17:36.350Z,982.95
2017-07-21T01:18:46.627Z,982.91
2017-07-21T01:19:56.902Z,982.9
2017-07-21T01:21:07.178Z,982.93
2017-07-21T01:22:17.451Z,982.88
2017-07-21T01:23:27.721Z,982.88
2017-07-21T01:24:37.684Z,982.88
2017-07-21T01:25:47.963Z,982.91
2017-07-21T01:26:57.921Z,982.92
2017-07-21T01:28:07.882Z,982.9
2017-07-21T01:29:17.842Z,982.9
2017-07-21T01:30:28.114Z,982.89
2017-07-21T01:31:38.385Z,982.92
2017-07-21T01:32:48.666Z,982.91
2017-07-21T01:33:58.947Z,982.9
2017-07-21T01:35:09.213Z,982.91
2017-07-21T01:36:19.483Z,982.91
2017-07-21T01:37:29.754Z,982.94
2017-07-21T01:38:40.028Z,982.98
2017-07-21T01:39:50.300Z,982.97
2017-07-21T01:41:00.575Z,983.01
2017-07-21T01:42:10.847Z,983
2017-07-21T01:43:21.113Z,982.98
2017-07-21T01:44:31.075Z,983
2017-07-21T01:45:41.030Z,983.05
2017-07-21T01:46:51.299Z,983.01
2017-07-21T01:48:01.569Z,983.09
2017-07-21T01:49:11.842Z,983.11
2017-07-21T01:50:21.800Z,983.07
2017-07-21T01:51:32.107Z,983.11
2017-07-21T01:52:42.379Z,983.11
2017-07-21T01:53:52.648Z,983.15
2017-07-21T01:55:02.617Z,983.16
2017-07-21T01:56:12.580Z,983.14
2017-07-21T01:57:22.852Z,983.14
2017-07-21T01:58:32.493Z,983.16
2017-07-21T01:59:42.466Z,983.16
2017-07-21T02:00:52.109Z,983.14
2017-07-21T02:02:02.375Z,983.15
2017-07-21T02:03:12.642Z,983.12
2017-07-21T02:04:22.911Z,983.12
2017-07-21T02:05:32.868Z,983.09
2017-07-21T02:06:42.823Z,983.04
2017-07-21T02:07:52.779Z,983.08
2017-07-21T02:09:02.736Z,983.08
2017-07-21T02:10:13.005Z,983.08
2017-07-21T02:11:23.271Z,983.08
2017-07-21T02:12:33.226Z,983.08
2017-07-21T02:13:43.182Z,983.09
2017-07-21T02:14:53.450Z,983.12
2017-07-21T02:16:03.086Z,983.15
2017-07-21T02:17:13.356Z,983.15
2017-07-21T02:18:23.313Z,983.2
2017-07-21T02:19:33.584Z,983.19
2017-07-21T02:20:43.850Z,983.16
2017-07-21T02:21:54.120Z,983.22
2017-07-21T02:23:04.083Z,983.19
2017-07-21T02:24:14.048Z,983.18
2017-07-21T02:25:23.695Z,983.16
2017-07-21T02:26:33.964Z,983.13
2017-07-21T02:27:43.920Z,983.18
2017-07-21T02:28:54.191Z,983.2
2017-07-21T02:30:04.461Z,983.21
2017-07-21T02:31:14.734Z,983.19
2017-07-21T02:32:25.010Z,983.25
2017-07-21T02:33:35.280Z,983.22
2017-07-21T02:34:45.553Z,983.24
2017-07-21T02:35:55.517Z,983.25
2017-07-21T02:37:05.475Z,983.24
2017-07-21T02:38:15.746Z,983.26
2017-07-21T02:39:25.708Z,983.25
2017-07-21T02:40:36.012Z,983.27
2017-07-21T02:41:46.293Z,983.28
2017-07-21T02:42:56.563Z,983.3
2017-07-21T02:44:06.836Z,983.28
2017-07-21T02:45:16.796Z,983.26
2017-07-21T02:46:27.075Z,983.27
2017-07-21T02:47:37.355Z,983.25
2017-07-21T02:48:46.996Z,983.26
2017-07-21T02:49:57.271Z,983.26
2017-07-21T02:51:07.544Z,983.24
2017-07-21T02:52:17.819Z,983.18
2017-07-21T02:53:28.095Z,983.17
2017-07-21T02:54:38.053Z,983.2
2017-07-21T02:55:48.330Z,983.2
2017-07-21T02:56:58.610Z,983.21
2017-07-21T02:58:08.260Z,983.24
2017-07-21T02:59:18.220Z,983.25
2017-07-21T03:00:28.207Z,983.22
2017-07-21T03:01:38.167Z,983.23
2017-07-21T03:02:48.443Z,983.23
2017-07-21T03:03:58.716Z,983.28
2017-07-21T03:05:08.987Z,983.27
2017-07-21T03:06:19.268Z,983.29
2017-07-21T03:07:29.536Z,983.28
2017-07-21T03:08:39.493Z,983.25
2017-07-21T03:09:49.765Z,983.27
2017-07-21T03:11:00.037Z,983.29
2017-07-21T03:12:10.316Z,983.35
2017-07-21T03:13:20.595Z,983.32
2017-07-21T03:14:30.862Z,983.34
2017-07-21T03:15:41.135Z,983.33
2017-07-21T03:16:51.401Z,983.35
2017-07-21T03:18:01.362Z,983.35
2017-07-21T03:19:11.637Z,983.38
2017-07-21T03:20:21.908Z,983.39
2017-07-21T03:21:32.180Z,983.41
2017-07-21T03:22:42.141Z,983.38
2017-07-21T03:23:52.097Z,983.39
2017-07-21T03:25:02.375Z,983.37
2017-07-21T03:26:12.650Z,983.36
2017-07-21T03:27:22.613Z,983.32
2017-07-21T03:28:32.576Z,983.35
2017-07-21T03:29:42.851Z,983.32
2017-07-21T03:30:53.126Z,983.33
2017-07-21T03:32:03.424Z,983.31
2017-07-21T03:33:13.698Z,983.32
2017-07-21T03:34:23.973Z,983.37
2017-07-21T03:35:34.242Z,983.37
2017-07-21T03:36:44.514Z,983.37
2017-07-21T03:37:54.784Z,983.39
2017-07-21T03:39:05.058Z,983.38
2017-07-21T03:40:15.331Z,983.37
2017-07-21T03:41:25.601Z,983.33
2017-07-21T03:42:37.571Z,983.37
2017-07-21T03:43:47.555Z,983.34
2017-07-21T03:44:57.827Z,983.35
2017-07-21T03:46:07.468Z,983.35
2017-07-21T03:47:17.735Z,983.38
2017-07-21T03:48:27.689Z,983.37
2017-07-21T03:49:37.340Z,983.38
2017-07-21T03:50:47.616Z,983.4
2017-07-21T03:51:57.883Z,983.39
2017-07-21T03:53:08.156Z,983.41
2017-07-21T03:54:18.426Z,983.41
2017-07-21T03:55:28.697Z,983.44
2017-07-21T03:56:38.961Z,983.43
2017-07-21T03:57:49.228Z,983.51
2017-07-21T03:58:59.498Z,983.52
2017-07-21T04:00:09.784Z,983.48
2017-07-21T04:01:20.060Z,983.51
2017-07-21T04:02:30.336Z,983.53
2017-07-21T04:03:40.289Z,983.54
2017-07-21T04:04:50.557Z,983.51
2017-07-21T04:06:00.513Z,983.54
2017-07-21T04:07:10.788Z,983.54
2017-07-21T04:08:21.058Z,983.53
2017-07-21T04:09:31.327Z,983.5
2017-07-21T04:10:41.610Z,983.53
2017-07-21T04:11:51.877Z,983.56
2017-07-21T04:13:01.834Z,983.59
2017-07-21T04:14:12.103Z,983.57
2017-07-21T04:15:22.384Z,983.6
2017-07-21T04:16:32.653Z,983.56
2017-07-21T04:17:42.921Z,983.56
2017-07-21T04:18:53.194Z,983.6
2017-07-21T04:20:03.150Z,983.6
2017-07-21T04:21:13.109Z,983.6
2017-07-21T04:22:23.066Z,983.61
2017-07-21T04:23:33.024Z,983.62
2017-07-21T04:24:42.980Z,983.61
2017-07-21T04:25:53.253Z,983.58
2017-07-21T04:27:03.529Z,983.58
2017-07-21T04:28:13.801Z,983.58
2017-07-21T04:29:24.069Z,983.57
2017-07-21T04:30:34.356Z,983.56
2017-07-21T04:31:44.624Z,983.58
2017-07-21T04:32:54.579Z,983.54
2017-07-21T04:34:04.869Z,983.55
2017-07-21T04:35:14.824Z,983.55
2017-07-21T04:36:24.783Z,983.59
2017-07-21T04:37:35.055Z,983.6
2017-07-21T04:38:45.326Z,983.6
2017-07-21T04:39:55.601Z,983.58
2017-07-21T04:41:05.878Z,983.56
2017-07-21T04:42:16.149Z,983.6
2017-07-21T04:43:26.415Z,983.57
2017-07-21T04:44:36.375Z,983.63
2017-07-21T04:45:46.644Z,983.6
2017-07-21T04:46:57.215Z,983.59
2017-07-21T04:48:07.512Z,983.59
2017-07-21T04:49:17.785Z,983.61
2017-07-21T04:50:27.440Z,983.62
2017-07-21T04:51:37.716Z,983.62
2017-07-21T04:52:47.707Z,983.59
2017-07-21T04:53:57.981Z,983.61
2017-07-21T04:55:07.946Z,983.59
2017-07-21T04:56:18.230Z,983.61
2017-07-21T04:57:28.506Z,983.57
2017-07-21T04:58:38.775Z,983.6
2017-07-21T04:59:48.731Z,983.58
2017-07-21T05:00:58.056Z,983.58
2017-07-21T05:02:08.007Z,983.55
2017-07-21T05:03:18.277Z,983.57
2017-07-21T05:04:28.700Z,983.57
2017-07-21T05:05:38.656Z,983.6
2017-07-21T05:06:48.296Z,983.61
2017-07-21T05:07:58.564Z,983.64
2017-07-21T05:09:08.834Z,983.64
2017-07-21T05:10:18.790Z,983.7
2017-07-21T05:11:29.075Z,983.66
2017-07-21T05:12:39.342Z,983.66
2017-07-21T05:13:49.648Z,983.66
2017-07-21T05:14:59.917Z,983.64
2017-07-21T05:16:10.191Z,983.67
2017-07-21T05:17:20.468Z,983.69
2017-07-21T05:18:30.428Z,983.72
2017-07-21T05:19:40.700Z,983.74
2017-07-21T05:20:50.663Z,983.74
2017-07-21T05:22:00.935Z,983.73
2017-07-21T05:23:11.214Z,983.73
2017-07-21T05:24:21.487Z,983.73
2017-07-21T05:25:31.759Z,983.7
2017-07-21T05:26:42.028Z,983.72
2017-07-21T05:27:51.984Z,983.69
2017-07-21T05:29:02.255Z,983.74
2017-07-21T05:30:12.530Z,983.74
2017-07-21T05:31:22.491Z,983.79
2017-07-21T05:32:32.450Z,983.83
2017-07-21T05:33:42.721Z,983.85
2017-07-21T05:34:53.008Z,983.88
2017-07-21T05:36:03.310Z,983.87
2017-07-21T05:37:13.583Z,983.89
2017-07-21T05:38:23.862Z,983.89
2017-07-21T05:39:34.174Z,983.87
2017-07-21T05:40:44.447Z,983.84
2017-07-21T05:41:54.718Z,983.86
2017-07-21T05:43:04.988Z,983.85
2017-07-21T05:44:15.259Z,983.9
2017-07-21T05:45:25.533Z,983.88
2017-07-21T05:46:35.812Z,983.91
2017-07-21T05:47:46.085Z,983.84
2017-07-21T05:48:56.358Z,983.81
2017-07-21T05:50:06.633Z,983.84
2017-07-21T05:51:16.908Z,983.86
2017-07-21T05:52:27.176Z,983.88
2017-07-21T05:53:37.450Z,983.85
2017-07-21T05:54:47.721Z,983.83
2017-07-21T05:55:57.990Z,983.83
2017-07-21T05:57:08.274Z,983.87
2017-07-21T05:58:17.918Z,983.84
2017-07-21T05:59:28.193Z,983.83
2017-07-21T06:00:38.464Z,983.82
2017-07-21T06:01:48.745Z,983.82
2017-07-21T06:04:12.196Z,983.86
2017-07-21T06:05:22.477Z,983.83
2017-07-21T06:06:32.745Z,983.86
2017-07-21T06:07:43.019Z,983.84
2017-07-21T06:08:52.978Z,983.82
2017-07-21T06:10:03.251Z,983.82
2017-07-21T06:11:13.303Z,983.78
2017-07-21T06:12:23.258Z,983.85
2017-07-21T06:13:33.528Z,983.85
2017-07-21T06:14:43.485Z,983.85
2017-07-21T06:15:53.759Z,983.81
2017-07-21T06:17:03.716Z,983.78
2017-07-21T06:18:13.674Z,983.76
2017-07-21T06:19:23.946Z,983.76
2017-07-21T06:20:33.901Z,983.79
2017-07-21T06:21:44.180Z,983.84
2017-07-21T06:22:54.460Z,983.85
2017-07-21T06:24:04.420Z,983.88
2017-07-21T06:25:14.389Z,983.89
2017-07-21T06:26:24.664Z,983.92
2017-07-21T06:27:34.627Z,983.93
2017-07-21T06:28:44.586Z,983.92
2017-07-21T06:29:54.542Z,983.95
2017-07-21T06:31:04.820Z,983.95
2017-07-21T06:32:14.773Z,983.92
2017-07-21T06:33:24.424Z,983.94
2017-07-21T06:34:34.697Z,983.93
2017-07-21T06:35:44.663Z,983.98
2017-07-21T06:36:54.623Z,983.99
2017-07-21T06:38:04.579Z,984.01
2017-07-21T06:39:14.856Z,984.03
2017-07-21T06:40:25.126Z,984.05
2017-07-21T06:41:35.396Z,984.07
2017-07-21T06:42:45.691Z,984.06
2017-07-21T06:43:55.648Z,984.1
2017-07-21T06:45:05.618Z,984.08
2017-07-21T06:46:15.889Z,984.08
2017-07-21T06:47:26.164Z,984.11
2017-07-21T06:48:36.444Z,984.11
2017-07-21T06:49:46.081Z,984.09
2017-07-21T06:50:56.358Z,984.07
2017-07-21T06:52:05.693Z,984.05
2017-07-21T06:53:15.647Z,984.06
2017-07-21T06:54:25.921Z,984.07
2017-07-21T06:55:36.195Z,984.08
2017-07-21T06:56:46.467Z,984.09
2017-07-21T06:57:56.747Z,984.07
2017-07-21T06:59:06.707Z,984.06
2017-07-21T07:00:16.987Z,984.14
2017-07-21T07:01:27.267Z,984.09
2017-07-21T07:02:37.547Z,984.09
2017-07-21T07:03:47.815Z,984.07
2017-07-21T07:04:57.775Z,984.08
2017-07-21T07:06:08.058Z,984.08
2017-07-21T07:07:18.340Z,984.12
2017-07-21T07:08:28.622Z,984.14
2017-07-21T07:09:38.894Z,984.08
2017-07-21T07:10:49.165Z,984.1
2017-07-21T07:11:59.437Z,984.13
2017-07-21T07:13:09.398Z,984.11
2017-07-21T07:14:19.671Z,984.11
2017-07-21T07:15:29.627Z,984.17
2017-07-21T07:16:39.589Z,984.19
2017-07-21T07:17:49.545Z,984.16
2017-07-21T07:18:59.517Z,984.18
2017-07-21T07:20:09.796Z,984.2
2017-07-21T07:21:19.752Z,984.18
2017-07-21T07:22:30.024Z,984.17
2017-07-21T07:23:40.297Z,984.16
2017-07-21T07:24:50.581Z,984.14
2017-07-21T07:26:00.546Z,984.16
2017-07-21T07:27:10.829Z,984.13
2017-07-21T07:28:20.791Z,984.14
2017-07-21T07:29:31.058Z,984.15
2017-07-21T07:30:41.017Z,984.15
2017-07-21T07:31:50.980Z,984.13
2017-07-21T07:33:01.259Z,984.19
2017-07-21T07:34:10.902Z,984.18
2017-07-21T07:35:20.863Z,984.19
2017-07-21T07:36:30.830Z,984.23
2017-07-21T07:37:40.794Z,984.24
2017-07-21T07:38:51.068Z,984.24
2017-07-21T07:40:01.347Z,984.24
2017-07-21T07:41:11.628Z,984.29
2017-07-21T07:42:21.902Z,984.32
2017-07-21T07:43:32.170Z,984.33
2017-07-21T07:44:42.132Z,984.32
2017-07-21T07:45:52.404Z,984.36
2017-07-21T07:47:02.047Z,984.37
2017-07-21T07:48:12.324Z,984.4
2017-07-21T07:49:22.598Z,984.41
2017-07-21T07:50:32.243Z,984.45
2017-07-21T07:51:42.526Z,984.46
2017-07-21T07:52:52.797Z,984.47
2017-07-21T07:54:03.081Z,984.45
2017-07-21T07:55:13.356Z,984.49
2017-07-21T07:56:22.686Z,984.48
2017-07-21T07:57:32.965Z,984.53
2017-07-21T07:58:43.237Z,984.5
2017-07-21T07:59:53.511Z,984.54
2017-07-21T08:01:03.161Z,984.56
2017-07-21T08:02:13.437Z,984.56
2017-07-21T08:03:23.752Z,984.55
2017-07-21T08:04:34.026Z,984.53
2017-07-21T08:05:44.303Z,984.5
2017-07-21T08:06:53.631Z,984.51
2017-07-21T08:08:03.916Z,984.55
2017-07-21T08:09:14.187Z,984.52
2017-07-21T08:10:24.150Z,984.5
2017-07-21T08:11:34.420Z,984.58
2017-07-21T08:12:44.692Z,984.58
2017-07-21T08:13:54.964Z,984.58
2017-07-21T08:15:04.944Z,984.56
2017-07-21T08:16:14.902Z,984.57
2017-07-21T08:17:25.178Z,984.6
2017-07-21T08:18:35.453Z,984.6
2017-07-21T08:19:45.727Z,984.66
2017-07-21T08:20:55.686Z,984.63
2017-07-21T08:22:05.957Z,984.62
2017-07-21T08:23:15.915Z,984.64
2017-07-21T08:24:26.187Z,984.65
2017-07-21T08:25:36.148Z,984.66
2017-07-21T08:26:46.108Z,984.67
2017-07-21T08:27:56.386Z,984.66
2017-07-21T08:29:06.660Z,984.63
2017-07-21T08:30:16.307Z,984.66
2017-07-21T08:31:26.581Z,984.64
2017-07-21T08:32:36.860Z,984.62
2017-07-21T08:33:46.820Z,984.62
2017-07-21T08:34:56.788Z,984.63
2017-07-21T08:36:06.747Z,984.64
2017-07-21T08:37:17.025Z,984.6
2017-07-21T08:38:27.305Z,984.58
2017-07-21T08:39:37.592Z,984.61
2017-07-21T08:40:47.874Z,984.65
2017-07-21T08:41:58.150Z,984.66
2017-07-21T08:43:07.478Z,984.69
2017-07-21T08:44:17.447Z,984.68
2017-07-21T08:45:27.724Z,984.67
2017-07-21T08:46:37.997Z,984.71
2017-07-21T08:47:48.267Z,984.71
2017-07-21T08:48:58.543Z,984.72
2017-07-21T08:50:08.815Z,984.77
2017-07-21T08:51:19.097Z,984.77
2017-07-21T08:52:29.060Z,984.79
2017-07-21T08:53:39.018Z,984.82
2017-07-21T08:54:49.295Z,984.8
2017-07-21T08:55:58.626Z,984.76
2017-07-21T08:57:08.586Z,984.77
2017-07-21T08:58:18.865Z,984.82
2017-07-21T08:59:28.822Z,984.83
2017-07-21T09:00:38.469Z,984.8
2017-07-21T09:01:48.427Z,984.82
2017-07-21T09:02:58.718Z,984.83
2017-07-21T09:04:08.688Z,984.83
2017-07-21T09:05:18.966Z,984.85
2017-07-21T09:06:29.234Z,984.84
2017-07-21T09:07:39.514Z,984.86
2017-07-21T09:08:49.797Z,984.86
2017-07-21T09:09:59.437Z,984.85
2017-07-21T09:11:09.720Z,984.9
2017-07-21T09:12:20.019Z,984.9
2017-07-21T09:13:30.299Z,984.9
2017-07-21T09:14:40.579Z,984.9
2017-07-21T09:15:52.901Z,984.89
2017-07-21T09:17:02.872Z,984.9
2017-07-21T09:18:12.865Z,984.92
2017-07-21T09:19:22.829Z,984.9
2017-07-21T09:20:33.106Z,984.9
2017-07-21T09:21:43.069Z,984.93
2017-07-21T09:22:53.028Z,984.91
2017-07-21T09:24:03.303Z,984.9
2017-07-21T09:25:13.596Z,984.9
2017-07-21T09:26:23.561Z,984.92
2017-07-21T09:27:33.205Z,984.92
2017-07-21T09:28:43.485Z,984.93
2017-07-21T09:29:53.446Z,984.93
2017-07-21T09:31:03.409Z,984.89
2017-07-21T09:32:13.368Z,984.89
2017-07-21T09:33:23.791Z,984.89
2017-07-21T09:34:33.756Z,984.92
2017-07-21T09:35:44.040Z,984.93
2017-07-21T09:36:54.332Z,984.93
2017-07-21T09:38:04.610Z,984.91
2017-07-21T09:39:14.889Z,984.96
2017-07-21T09:40:25.163Z,984.92
2017-07-21T09:41:35.438Z,984.9
2017-07-21T09:42:45.717Z,984.92
2017-07-21T09:43:55.995Z,984.94
2017-07-21T09:45:06.285Z,984.96
2017-07-21T09:46:16.257Z,984.92
2017-07-21T09:47:26.530Z,984.95
2017-07-21T09:48:36.498Z,984.93
2017-07-21T09:49:46.777Z,984.97
2017-07-21T09:50:56.740Z,985
2017-07-21T09:52:06.390Z,984.96
2017-07-21T09:53:16.668Z,984.98
2017-07-21T09:54:26.630Z,984.98
2017-07-21T09:55:36.282Z,984.99
2017-07-21T09:56:46.568Z,985
2017-07-21T09:57:56.527Z,985
2017-07-21T09:59:06.804Z,984.98
2017-07-21T10:00:16.767Z,984.99
2017-07-21T10:01:27.042Z,984.93
2017-07-21T10:02:37.322Z,984.95
2017-07-21T10:03:47.595Z,984.96
2017-07-21T10:04:57.244Z,984.96
2017-07-21T10:06:07.560Z,984.98
2017-07-21T10:07:17.841Z,984.96
2017-07-21T10:08:28.119Z,985
2017-07-21T10:09:38.399Z,985.01
2017-07-21T10:10:48.359Z,985.03
2017-07-21T10:11:58.351Z,984.95
2017-07-21T10:13:08.307Z,985
2017-07-21T10:14:17.952Z,985.01
2017-07-21T10:15:28.229Z,985.01
2017-07-21T10:16:38.507Z,985.03
2017-07-21T10:17:48.475Z,985.02
2017-07-21T10:18:58.464Z,985.04
2017-07-21T10:20:08.116Z,985.03
2017-07-21T10:21:18.391Z,985.06
2017-07-21T10:22:28.660Z,985.08
2017-07-21T10:23:38.945Z,985.08
2017-07-21T10:24:49.225Z,985.09
2017-07-21T10:25:59.187Z,985.1
2017-07-21T10:27:09.147Z,985.12
2017-07-21T10:28:18.806Z,985.1
2017-07-21T10:29:28.770Z,985.08
2017-07-21T10:30:39.052Z,985.09
2017-07-21T10:31:49.014Z,985.1
2017-07-21T10:32:58.666Z,985.11
2017-07-21T10:34:08.944Z,985.08
2017-07-21T10:35:18.911Z,985.1
2017-07-21T10:36:29.186Z,985.09
2017-07-21T10:37:39.149Z,985.09
2017-07-21T10:38:49.422Z,985.13
2017-07-21T10:39:59.068Z,985.1
2017-07-21T10:41:09.033Z,985.13
2017-07-21T10:42:19.315Z,985.09
2017-07-21T10:43:29.590Z,985.08
2017-07-21T10:44:39.867Z,985.09
2017-07-21T10:45:49.828Z,985.13
2017-07-21T10:46:59.794Z,985.15
2017-07-21T10:48:10.080Z,985.15
2017-07-21T10:49:20.369Z,985.17
2017-07-21T10:50:30.649Z,985.2
2017-07-21T10:51:40.926Z,985.17
2017-07-21T10:52:51.206Z,985.19
2017-07-21T10:54:01.504Z,985.18
2017-07-21T10:55:11.471Z,985.23
2017-07-21T10:56:21.435Z,985.21
2017-07-21T10:57:31.424Z,985.23
2017-07-21T10:58:41.077Z,985.29
2017-07-21T10:59:51.041Z,985.26
2017-07-21T11:01:01.320Z,985.24
2017-07-21T11:02:11.595Z,985.31
2017-07-21T11:03:21.871Z,985.28
2017-07-21T11:04:32.153Z,985.3
2017-07-21T11:05:42.427Z,985.29
2017-07-21T11:06:52.708Z,985.29
2017-07-21T11:08:02.363Z,985.28
2017-07-21T11:09:12.329Z,985.32
2017-07-21T11:10:22.602Z,985.35
2017-07-21T11:11:32.568Z,985.34
2017-07-21T11:12:42.528Z,985.35
2017-07-21T11:13:52.495Z,985.35
2017-07-21T11:15:02.351Z,985.36
2017-07-21T11:16:12.313Z,985.4
2017-07-21T11:17:22.589Z,985.38
2017-07-21T11:18:32.873Z,985.4
2017-07-21T11:19:43.149Z,985.42
2017-07-21T11:20:53.112Z,985.41
2017-07-21T11:22:03.398Z,985.39
2017-07-21T11:23:13.356Z,985.4
2017-07-21T11:24:23.343Z,985.4
2017-07-21T11:25:33.645Z,985.39
2017-07-21T11:26:43.606Z,985.42
2017-07-21T11:27:53.883Z,985.38
2017-07-21T11:29:04.158Z,985.41
2017-07-21T11:30:13.808Z,985.41
2017-07-21T11:31:23.769Z,985.41
2017-07-21T11:32:33.108Z,985.42
2017-07-21T11:33:43.383Z,985.39
2017-07-21T11:34:53.345Z,985.4
2017-07-21T11:36:03.308Z,985.41
2017-07-21T11:37:13.265Z,985.43
2017-07-21T11:38:23.234Z,985.42
2017-07-21T11:39:33.512Z,985.42
2017-07-21T11:40:43.786Z,985.48
2017-07-21T11:41:54.063Z,985.5
2017-07-21T11:43:04.337Z,985.47
2017-07-21T11:44:14.303Z,985.49
2017-07-21T11:45:24.274Z,985.52
2017-07-21T11:46:34.555Z,985.52
2017-07-21T11:47:44.519Z,985.56
2017-07-21T11:48:54.480Z,985.58
2017-07-21T11:50:04.764Z,985.59
2017-07-21T11:51:14.724Z,985.55
2017-07-21T11:52:25.000Z,985.58
2017-07-21T11:53:35.282Z,985.59
2017-07-21T11:54:45.573Z,985.59
2017-07-21T11:55:55.848Z,985.55
2017-07-21T11:57:06.129Z,985.56
2017-07-21T11:58:16.095Z,985.53
2017-07-21T11:59:26.374Z,985.49
2017-07-21T12:00:36.649Z,985.52
2017-07-21T12:01:46.943Z,985.52
2017-07-21T12:02:57.223Z,985.51
2017-07-21T12:04:06.876Z,985.53
2017-07-21T12:05:17.153Z,985.52
2017-07-21T12:06:27.123Z,985.56
2017-07-21T12:07:37.085Z,985.56
2017-07-21T12:08:47.382Z,985.57
2017-07-21T12:09:57.664Z,985.58
2017-07-21T12:11:07.633Z,985.59
2017-07-21T12:12:17.908Z,985.61
2017-07-21T12:13:28.196Z,985.58
2017-07-21T12:14:38.524Z,985.61
2017-07-21T12:15:48.492Z,985.57
2017-07-21T12:16:58.791Z,985.6
2017-07-21T12:18:09.075Z,985.62
2017-07-21T12:19:19.357Z,985.61
2017-07-21T12:20:29.639Z,985.6
2017-07-21T12:21:39.289Z,985.62
2017-07-21T12:22:49.569Z,985.61
2017-07-21T12:23:59.856Z,985.71
2017-07-21T12:25:09.818Z,985.69
2017-07-21T12:26:19.463Z,985.68
2017-07-21T12:27:29.745Z,985.68
2017-07-21T12:28:40.030Z,985.68
2017-07-21T12:29:50.307Z,985.66
2017-07-21T12:31:00.584Z,985.76
2017-07-21T12:32:10.548Z,985.81
2017-07-21T12:33:20.218Z,985.77
2017-07-21T12:34:30.489Z,985.78
2017-07-21T12:35:40.451Z,985.82
2017-07-21T12:36:50.750Z,985.84
2017-07-21T12:38:01.043Z,985.85
2017-07-21T12:39:10.693Z,986.06
2017-07-21T12:40:20.971Z,985.93
2017-07-21T12:41:31.248Z,986.12
2017-07-21T12:42:41.529Z,985.87
2017-07-21T12:43:51.807Z,986
2017-07-21T12:45:02.085Z,986.19
2017-07-21T12:46:12.063Z,986.19
2017-07-21T12:47:22.046Z,986.16
2017-07-21T12:48:32.327Z,986.09
2017-07-21T12:49:42.294Z,986.08
2017-07-21T12:50:52.572Z,986.14
2017-07-21T12:52:02.862Z,986.19
2017-07-21T12:53:13.145Z,986.11
2017-07-21T12:54:23.427Z,986.08
2017-07-21T12:55:33.712Z,986.03
2017-07-21T12:56:43.691Z,985.93
2017-07-21T12:57:53.673Z,985.86
2017-07-21T12:59:03.645Z,985.83
2017-07-21T13:00:13.298Z,985.85
2017-07-21T13:01:23.582Z,985.96
2017-07-21T13:02:33.862Z,985.87
2017-07-21T13:03:43.844Z,985.96
2017-07-21T13:04:54.130Z,985.95
2017-07-21T13:06:04.122Z,985.95
2017-07-21T13:07:13.778Z,985.87
2017-07-21T13:08:24.061Z,985.9
2017-07-21T13:09:34.343Z,985.91
2017-07-21T13:10:43.999Z,985.96
2017-07-21T13:11:54.301Z,986.31
2017-07-21T13:13:04.581Z,986.3
2017-07-21T13:14:14.549Z,986.24
2017-07-21T13:15:24.828Z,986.13
2017-07-21T13:16:35.106Z,986.13
2017-07-21T13:17:45.390Z,986.16
2017-07-21T13:18:55.366Z,986.26
2017-07-21T13:20:05.653Z,986.25
2017-07-21T13:21:15.933Z,986.1
2017-07-21T13:22:26.231Z,986.07
2017-07-21T13:23:36.509Z,986.07
2017-07-21T13:24:46.797Z,986.19
2017-07-21T13:25:56.778Z,986.12
2017-07-21T13:27:07.063Z,986.16
2017-07-21T13:28:17.344Z,986.29
2017-07-21T13:29:27.622Z,986.26
2017-07-21T13:30:37.270Z,986.33
2017-07-21T13:31:47.246Z,986.22
2017-07-21T13:32:57.534Z,986.28
2017-07-21T13:34:07.497Z,986.2
2017-07-21T13:35:17.470Z,986.24
2017-07-21T13:36:27.441Z,986.42
2017-07-21T13:37:37.720Z,986.43
2017-07-21T13:38:47.797Z,986.68
2017-07-21T13:39:58.077Z,986.38
2017-07-21T13:41:08.053Z,986.24
2017-07-21T13:42:18.018Z,986.1
2017-07-21T13:43:28.298Z,986.15
2017-07-21T13:44:38.575Z,986.43
2017-07-21T13:45:48.857Z,986.3
2017-07-21T13:46:58.839Z,986.26
2017-07-21T13:48:09.125Z,986.14
2017-07-21T13:49:19.414Z,986.21
2017-07-21T13:50:29.696Z,986.12
2017-07-21T13:51:39.970Z,986.12
2017-07-21T13:52:50.246Z,986.16
2017-07-21T13:54:00.527Z,986.28
2017-07-21T13:55:10.811Z,986.36
2017-07-21T13:56:21.094Z,986.5
2017-07-21T13:57:31.385Z,986.51
2017-07-21T13:58:41.665Z,986.72
2017-07-21T13:59:51.949Z,986.82
2017-07-21T14:01:02.234Z,986.69
2017-07-21T14:02:12.198Z,986.82
2017-07-21T14:03:22.474Z,986.53
2017-07-21T14:04:32.754Z,986.49
2017-07-21T14:05:42.413Z,986.8
2017-07-21T14:06:52.697Z,986.9
2017-07-21T14:08:02.674Z,986.81
2017-07-21T14:09:12.960Z,986.84
2017-07-21T14:10:22.926Z,986.97
2017-07-21T14:11:33.219Z,987.01
2017-07-21T14:12:43.503Z,987.14
2017-07-21T14:13:53.784Z,987.09
2017-07-21T14:15:03.755Z,986.98
2017-07-21T14:16:14.045Z,987.14
2017-07-21T14:17:24.347Z,987.06
2017-07-21T14:18:34.010Z,987.06
2017-07-21T14:19:43.981Z,987.01
2017-07-21T14:20:54.272Z,987.32
2017-07-21T14:22:04.239Z,987.2
2017-07-21T14:23:14.524Z,987.09
2017-07-21T14:24:24.807Z,987.19
2017-07-21T14:25:34.783Z,987.08
2017-07-21T14:26:45.065Z,987.17
2017-07-21T14:27:55.355Z,987.13
2017-07-21T14:29:05.016Z,987.08
2017-07-21T14:30:15.302Z,987.2
2017-07-21T14:31:25.276Z,987.08
2017-07-21T14:32:35.558Z,987.11
2017-07-21T14:33:45.845Z,987.15
2017-07-21T14:34:56.136Z,987.14
2017-07-21T14:36:06.421Z,987.07
2017-07-21T14:37:16.710Z,987.11
2017-07-21T14:38:26.992Z,987.22
2017-07-21T14:39:37.282Z,987.19